sensor_id;sensor_type;location;lat;lon;timestamp;P1;durP1;ratioP1;P2;durP2;ratioP2
55134;SDS011;41031;44.750;11.308;2023-03-04T00:00:50;15.53;;;10.50;;
55134;SDS011;41031;44.750;11.308;2023-03-04T00:03:17;14.93;;;11.00;;
55134;SDS011;41031;44.750;11.308;2023-03-04T00:05:44;15.00;;;10.53;;
55134;SDS011;41031;44.750;11.308;2023-03-04T00:08:13;19.20;;;10.93;;
55134;SDS011;41031;44.750;11.308;2023-03-04T00:10:42;17.90;;;11.53;;
55134;SDS011;41031;44.750;11.308;2023-03-04T00:13:09;19.00;;;10.97;;
55134;SDS011;41031;44.750;11.308;2023-03-04T00:15:41;16.33;;;10.30;;
55134;SDS011;41031;44.750;11.308;2023-03-04T00:18:08;14.37;;;10.47;;
55134;SDS011;41031;44.750;11.308;2023-03-04T00:20:35;16.27;;;11.17;;
55134;SDS011;41031;44.750;11.308;2023-03-04T00:23:02;16.67;;;9.87;;
55134;SDS011;41031;44.750;11.308;2023-03-04T00:25:30;13.90;;;10.07;;
55134;SDS011;41031;44.750;11.308;2023-03-04T00:28:01;16.77;;;10.70;;
55134;SDS011;41031;44.750;11.308;2023-03-04T00:30:31;17.83;;;10.73;;
55134;SDS011;41031;44.750;11.308;2023-03-04T00:32:58;13.50;;;9.67;;
55134;SDS011;41031;44.750;11.308;2023-03-04T00:35:25;16.57;;;10.53;;
55134;SDS011;41031;44.750;11.308;2023-03-04T00:37:53;15.53;;;9.97;;
55134;SDS011;41031;44.750;11.308;2023-03-04T00:40:20;18.70;;;11.57;;
55134;SDS011;41031;44.750;11.308;2023-03-04T00:42:49;19.47;;;11.10;;
55134;SDS011;41031;44.750;11.308;2023-03-04T00:45:17;15.57;;;10.07;;
55134;SDS011;41031;44.750;11.308;2023-03-04T00:47:45;16.83;;;10.30;;
55134;SDS011;41031;44.750;11.308;2023-03-04T00:50:13;15.60;;;10.57;;
55134;SDS011;41031;44.750;11.308;2023-03-04T00:52:40;17.43;;;11.50;;
55134;SDS011;41031;44.750;11.308;2023-03-04T00:55:08;17.00;;;10.60;;
55134;SDS011;41031;44.750;11.308;2023-03-04T00:57:36;13.90;;;9.30;;
55134;SDS011;41031;44.750;11.308;2023-03-04T01:00:05;14.97;;;9.60;;
55134;SDS011;41031;44.750;11.308;2023-03-04T01:02:33;16.33;;;10.10;;
55134;SDS011;41031;44.750;11.308;2023-03-04T01:05:00;21.33;;;11.07;;
55134;SDS011;41031;44.750;11.308;2023-03-04T01:07:27;16.67;;;10.83;;
55134;SDS011;41031;44.750;11.308;2023-03-04T01:09:54;15.73;;;10.93;;
55134;SDS011;41031;44.750;11.308;2023-03-04T01:12:23;14.77;;;9.67;;
55134;SDS011;41031;44.750;11.308;2023-03-04T01:14:50;16.63;;;10.80;;
55134;SDS011;41031;44.750;11.308;2023-03-04T01:17:18;15.13;;;10.70;;
55134;SDS011;41031;44.750;11.308;2023-03-04T01:19:48;15.47;;;9.87;;
55134;SDS011;41031;44.750;11.308;2023-03-04T01:22:16;17.33;;;10.33;;
55134;SDS011;41031;44.750;11.308;2023-03-04T01:24:46;16.73;;;9.90;;
55134;SDS011;41031;44.750;11.308;2023-03-04T01:27:16;20.07;;;9.40;;
55134;SDS011;41031;44.750;11.308;2023-03-04T01:29:43;14.03;;;9.60;;
55134;SDS011;41031;44.750;11.308;2023-03-04T01:32:10;17.07;;;10.13;;
55134;SDS011;41031;44.750;11.308;2023-03-04T01:34:38;23.07;;;11.37;;
55134;SDS011;41031;44.750;11.308;2023-03-04T01:37:05;19.10;;;11.30;;
55134;SDS011;41031;44.750;11.308;2023-03-04T01:39:32;15.37;;;10.30;;
55134;SDS011;41031;44.750;11.308;2023-03-04T01:42:00;16.20;;;10.03;;
55134;SDS011;41031;44.750;11.308;2023-03-04T01:44:28;18.13;;;9.70;;
55134;SDS011;41031;44.750;11.308;2023-03-04T01:46:57;18.23;;;9.77;;
55134;SDS011;41031;44.750;11.308;2023-03-04T01:49:25;16.60;;;9.80;;
55134;SDS011;41031;44.750;11.308;2023-03-04T01:51:53;20.27;;;10.80;;
55134;SDS011;41031;44.750;11.308;2023-03-04T01:54:21;17.20;;;10.67;;
55134;SDS011;41031;44.750;11.308;2023-03-04T01:56:49;15.57;;;9.13;;
55134;SDS011;41031;44.750;11.308;2023-03-04T01:59:19;14.57;;;10.47;;
55134;SDS011;41031;44.750;11.308;2023-03-04T02:01:58;11.53;;;9.30;;
55134;SDS011;41031;44.750;11.308;2023-03-04T02:04:29;15.10;;;9.37;;
55134;SDS011;41031;44.750;11.308;2023-03-04T02:07:00;14.77;;;9.63;;
55134;SDS011;41031;44.750;11.308;2023-03-04T02:09:29;14.93;;;10.10;;
55134;SDS011;41031;44.750;11.308;2023-03-04T02:11:58;14.80;;;9.63;;
55134;SDS011;41031;44.750;11.308;2023-03-04T02:14:26;18.30;;;11.10;;
55134;SDS011;41031;44.750;11.308;2023-03-04T02:16:54;18.77;;;9.40;;
55134;SDS011;41031;44.750;11.308;2023-03-04T02:22:22;16.07;;;9.60;;
55134;SDS011;41031;44.750;11.308;2023-03-04T02:24:55;11.83;;;8.80;;
55134;SDS011;41031;44.750;11.308;2023-03-04T02:27:29;16.53;;;8.50;;
55134;SDS011;41031;44.750;11.308;2023-03-04T02:29:56;13.67;;;9.33;;
55134;SDS011;41031;44.750;11.308;2023-03-04T02:32:23;15.40;;;10.33;;
55134;SDS011;41031;44.750;11.308;2023-03-04T02:34:52;17.13;;;9.93;;
55134;SDS011;41031;44.750;11.308;2023-03-04T02:37:19;13.80;;;9.13;;
55134;SDS011;41031;44.750;11.308;2023-03-04T02:39:51;14.67;;;9.03;;
55134;SDS011;41031;44.750;11.308;2023-03-04T02:42:18;16.83;;;10.40;;
55134;SDS011;41031;44.750;11.308;2023-03-04T02:44:46;17.30;;;11.10;;
55134;SDS011;41031;44.750;11.308;2023-03-04T02:47:17;26.53;;;12.73;;
55134;SDS011;41031;44.750;11.308;2023-03-04T02:49:46;19.30;;;11.77;;
55134;SDS011;41031;44.750;11.308;2023-03-04T02:52:16;27.97;;;13.13;;
55134;SDS011;41031;44.750;11.308;2023-03-04T02:54:46;20.87;;;12.57;;
55134;SDS011;41031;44.750;11.308;2023-03-04T02:57:14;18.83;;;11.97;;
55134;SDS011;41031;44.750;11.308;2023-03-04T02:59:45;20.83;;;10.37;;
55134;SDS011;41031;44.750;11.308;2023-03-04T03:02:18;14.43;;;10.00;;
55134;SDS011;41031;44.750;11.308;2023-03-04T03:04:45;14.60;;;8.40;;
55134;SDS011;41031;44.750;11.308;2023-03-04T03:07:16;14.53;;;8.80;;
55134;SDS011;41031;44.750;11.308;2023-03-04T03:09:43;19.37;;;11.07;;
55134;SDS011;41031;44.750;11.308;2023-03-04T03:12:10;13.30;;;9.23;;
55134;SDS011;41031;44.750;11.308;2023-03-04T03:14:38;17.40;;;10.73;;
55134;SDS011;41031;44.750;11.308;2023-03-04T03:17:07;17.73;;;10.13;;
55134;SDS011;41031;44.750;11.308;2023-03-04T03:19:36;19.27;;;9.80;;
55134;SDS011;41031;44.750;11.308;2023-03-04T03:22:06;18.70;;;9.97;;
55134;SDS011;41031;44.750;11.308;2023-03-04T03:24:34;15.93;;;9.30;;
55134;SDS011;41031;44.750;11.308;2023-03-04T03:27:01;16.77;;;10.53;;
55134;SDS011;41031;44.750;11.308;2023-03-04T03:29:30;16.13;;;10.87;;
55134;SDS011;41031;44.750;11.308;2023-03-04T03:31:59;15.90;;;9.67;;
55134;SDS011;41031;44.750;11.308;2023-03-04T03:34:27;21.23;;;10.73;;
55134;SDS011;41031;44.750;11.308;2023-03-04T03:36:54;39.20;;;14.23;;
55134;SDS011;41031;44.750;11.308;2023-03-04T03:39:21;33.03;;;14.40;;
55134;SDS011;41031;44.750;11.308;2023-03-04T03:41:50;31.23;;;13.70;;
55134;SDS011;41031;44.750;11.308;2023-03-04T03:44:17;26.17;;;12.33;;
55134;SDS011;41031;44.750;11.308;2023-03-04T03:46:44;32.47;;;12.97;;
55134;SDS011;41031;44.750;11.308;2023-03-04T03:49:13;56.07;;;16.30;;
55134;SDS011;41031;44.750;11.308;2023-03-04T03:51:40;92.03;;;14.83;;
55134;SDS011;41031;44.750;11.308;2023-03-04T03:54:09;48.07;;;14.50;;
55134;SDS011;41031;44.750;11.308;2023-03-04T03:56:36;39.50;;;14.77;;
55134;SDS011;41031;44.750;11.308;2023-03-04T03:59:04;35.20;;;13.43;;
55134;SDS011;41031;44.750;11.308;2023-03-04T04:01:31;42.63;;;12.83;;
55134;SDS011;41031;44.750;11.308;2023-03-04T04:04:02;54.67;;;14.27;;
55134;SDS011;41031;44.750;11.308;2023-03-04T04:06:30;29.37;;;13.53;;
55134;SDS011;41031;44.750;11.308;2023-03-04T04:08:57;34.97;;;13.10;;
55134;SDS011;41031;44.750;11.308;2023-03-04T04:11:25;47.87;;;12.83;;
55134;SDS011;41031;44.750;11.308;2023-03-04T04:13:55;42.50;;;14.40;;
55134;SDS011;41031;44.750;11.308;2023-03-04T04:16:23;37.13;;;13.27;;
55134;SDS011;41031;44.750;11.308;2023-03-04T04:18:52;39.10;;;13.43;;
55134;SDS011;41031;44.750;11.308;2023-03-04T04:21:21;59.27;;;13.03;;
55134;SDS011;41031;44.750;11.308;2023-03-04T04:23:50;39.90;;;13.33;;
55134;SDS011;41031;44.750;11.308;2023-03-04T04:26:17;40.37;;;13.63;;
55134;SDS011;41031;44.750;11.308;2023-03-04T04:28:44;48.10;;;14.73;;
55134;SDS011;41031;44.750;11.308;2023-03-04T04:31:11;46.73;;;15.60;;
55134;SDS011;41031;44.750;11.308;2023-03-04T04:33:40;36.43;;;13.37;;
55134;SDS011;41031;44.750;11.308;2023-03-04T04:36:09;32.27;;;13.07;;
55134;SDS011;41031;44.750;11.308;2023-03-04T04:38:40;41.03;;;13.40;;
55134;SDS011;41031;44.750;11.308;2023-03-04T04:41:15;34.23;;;13.27;;
55134;SDS011;41031;44.750;11.308;2023-03-04T04:43:46;34.80;;;11.30;;
55134;SDS011;41031;44.750;11.308;2023-03-04T04:46:15;36.60;;;13.27;;
55134;SDS011;41031;44.750;11.308;2023-03-04T04:48:45;25.60;;;11.00;;
55134;SDS011;41031;44.750;11.308;2023-03-04T04:51:14;17.43;;;11.13;;
55134;SDS011;41031;44.750;11.308;2023-03-04T04:53:41;21.80;;;11.67;;
55134;SDS011;41031;44.750;11.308;2023-03-04T04:56:12;20.73;;;11.00;;
55134;SDS011;41031;44.750;11.308;2023-03-04T04:58:46;18.10;;;11.00;;
55134;SDS011;41031;44.750;11.308;2023-03-04T05:01:16;28.97;;;12.40;;
55134;SDS011;41031;44.750;11.308;2023-03-04T05:03:43;52.03;;;14.70;;
55134;SDS011;41031;44.750;11.308;2023-03-04T05:06:11;44.80;;;14.67;;
55134;SDS011;41031;44.750;11.308;2023-03-04T05:08:39;57.10;;;14.77;;
55134;SDS011;41031;44.750;11.308;2023-03-04T05:11:06;73.67;;;15.23;;
55134;SDS011;41031;44.750;11.308;2023-03-04T05:13:34;90.77;;;14.50;;
55134;SDS011;41031;44.750;11.308;2023-03-04T05:16:02;30.47;;;14.83;;
55134;SDS011;41031;44.750;11.308;2023-03-04T05:18:29;102.53;;;16.10;;
55134;SDS011;41031;44.750;11.308;2023-03-04T05:21:01;43.80;;;14.20;;
55134;SDS011;41031;44.750;11.308;2023-03-04T05:23:30;36.60;;;13.97;;
55134;SDS011;41031;44.750;11.308;2023-03-04T05:26:01;39.70;;;15.27;;
55134;SDS011;41031;44.750;11.308;2023-03-04T05:28:29;35.77;;;15.10;;
55134;SDS011;41031;44.750;11.308;2023-03-04T05:30:59;39.27;;;14.33;;
55134;SDS011;41031;44.750;11.308;2023-03-04T05:33:27;42.70;;;15.27;;
55134;SDS011;41031;44.750;11.308;2023-03-04T05:35:55;59.63;;;15.57;;
55134;SDS011;41031;44.750;11.308;2023-03-04T05:38:23;38.27;;;14.53;;
55134;SDS011;41031;44.750;11.308;2023-03-04T05:40:54;65.00;;;14.60;;
55134;SDS011;41031;44.750;11.308;2023-03-04T05:43:24;60.87;;;14.37;;
55134;SDS011;41031;44.750;11.308;2023-03-04T05:45:53;50.47;;;15.50;;
55134;SDS011;41031;44.750;11.308;2023-03-04T05:48:21;30.20;;;13.47;;
55134;SDS011;41031;44.750;11.308;2023-03-04T05:50:55;37.20;;;12.73;;
55134;SDS011;41031;44.750;11.308;2023-03-04T05:53:23;49.83;;;13.60;;
55134;SDS011;41031;44.750;11.308;2023-03-04T05:55:52;41.60;;;12.87;;
55134;SDS011;41031;44.750;11.308;2023-03-04T05:58:20;32.53;;;11.97;;
55134;SDS011;41031;44.750;11.308;2023-03-04T06:00:47;40.77;;;12.83;;
55134;SDS011;41031;44.750;11.308;2023-03-04T06:03:16;67.47;;;14.77;;
55134;SDS011;41031;44.750;11.308;2023-03-04T06:05:46;127.93;;;15.33;;
55134;SDS011;41031;44.750;11.308;2023-03-04T06:08:13;62.70;;;13.87;;
55134;SDS011;41031;44.750;11.308;2023-03-04T06:10:41;95.40;;;13.80;;
55134;SDS011;41031;44.750;11.308;2023-03-04T06:13:08;70.67;;;15.27;;
55134;SDS011;41031;44.750;11.308;2023-03-04T06:15:40;63.47;;;14.30;;
55134;SDS011;41031;44.750;11.308;2023-03-04T06:18:08;24.60;;;13.00;;
55134;SDS011;41031;44.750;11.308;2023-03-04T06:20:36;49.00;;;13.73;;
55134;SDS011;41031;44.750;11.308;2023-03-04T06:23:04;22.50;;;10.77;;
55134;SDS011;41031;44.750;11.308;2023-03-04T06:25:31;18.03;;;12.23;;
55134;SDS011;41031;44.750;11.308;2023-03-04T06:27:59;17.20;;;11.50;;
55134;SDS011;41031;44.750;11.308;2023-03-04T06:30:29;19.10;;;11.87;;
55134;SDS011;41031;44.750;11.308;2023-03-04T06:32:56;16.40;;;10.90;;
55134;SDS011;41031;44.750;11.308;2023-03-04T06:35:24;16.43;;;11.83;;
55134;SDS011;41031;44.750;11.308;2023-03-04T06:37:51;18.37;;;11.83;;
55134;SDS011;41031;44.750;11.308;2023-03-04T06:40:18;21.57;;;12.87;;
55134;SDS011;41031;44.750;11.308;2023-03-04T06:42:46;44.60;;;12.80;;
55134;SDS011;41031;44.750;11.308;2023-03-04T06:45:16;16.57;;;12.13;;
55134;SDS011;41031;44.750;11.308;2023-03-04T06:47:43;41.73;;;12.57;;
55134;SDS011;41031;44.750;11.308;2023-03-04T06:50:16;40.90;;;13.23;;
55134;SDS011;41031;44.750;11.308;2023-03-04T06:52:44;19.23;;;13.10;;
55134;SDS011;41031;44.750;11.308;2023-03-04T06:55:14;18.63;;;12.93;;
55134;SDS011;41031;44.750;11.308;2023-03-04T06:57:41;20.13;;;13.77;;
55134;SDS011;41031;44.750;11.308;2023-03-04T07:00:08;17.53;;;12.00;;
55134;SDS011;41031;44.750;11.308;2023-03-04T07:02:36;20.73;;;13.17;;
55134;SDS011;41031;44.750;11.308;2023-03-04T07:05:03;19.73;;;13.53;;
55134;SDS011;41031;44.750;11.308;2023-03-04T07:07:31;28.57;;;15.20;;
55134;SDS011;41031;44.750;11.308;2023-03-04T07:09:58;21.27;;;15.30;;
55134;SDS011;41031;44.750;11.308;2023-03-04T07:12:25;24.00;;;15.60;;
55134;SDS011;41031;44.750;11.308;2023-03-04T07:14:52;24.13;;;15.70;;
55134;SDS011;41031;44.750;11.308;2023-03-04T07:17:19;24.37;;;16.30;;
55134;SDS011;41031;44.750;11.308;2023-03-04T07:19:47;21.37;;;14.93;;
55134;SDS011;41031;44.750;11.308;2023-03-04T07:22:14;23.10;;;14.90;;
55134;SDS011;41031;44.750;11.308;2023-03-04T07:24:42;20.77;;;15.17;;
55134;SDS011;41031;44.750;11.308;2023-03-04T07:27:14;20.33;;;14.93;;
55134;SDS011;41031;44.750;11.308;2023-03-04T07:29:41;23.13;;;14.90;;
55134;SDS011;41031;44.750;11.308;2023-03-04T07:32:10;21.90;;;14.50;;
55134;SDS011;41031;44.750;11.308;2023-03-04T07:34:37;20.03;;;15.70;;
55134;SDS011;41031;44.750;11.308;2023-03-04T07:37:05;24.20;;;16.50;;
55134;SDS011;41031;44.750;11.308;2023-03-04T07:39:34;21.03;;;15.00;;
55134;SDS011;41031;44.750;11.308;2023-03-04T07:42:02;23.47;;;16.70;;
55134;SDS011;41031;44.750;11.308;2023-03-04T07:44:37;19.70;;;15.30;;
55134;SDS011;41031;44.750;11.308;2023-03-04T07:47:10;22.13;;;15.17;;
55134;SDS011;41031;44.750;11.308;2023-03-04T07:49:38;24.73;;;17.07;;
55134;SDS011;41031;44.750;11.308;2023-03-04T07:52:06;26.23;;;17.03;;
55134;SDS011;41031;44.750;11.308;2023-03-04T07:54:34;27.23;;;17.60;;
55134;SDS011;41031;44.750;11.308;2023-03-04T07:57:02;23.77;;;17.40;;
55134;SDS011;41031;44.750;11.308;2023-03-04T07:59:29;26.90;;;18.43;;
55134;SDS011;41031;44.750;11.308;2023-03-04T08:01:58;26.80;;;17.77;;
55134;SDS011;41031;44.750;11.308;2023-03-04T08:04:28;29.10;;;18.90;;
55134;SDS011;41031;44.750;11.308;2023-03-04T08:07:00;27.70;;;18.90;;
55134;SDS011;41031;44.750;11.308;2023-03-04T08:09:27;28.73;;;18.53;;
55134;SDS011;41031;44.750;11.308;2023-03-04T08:11:55;32.37;;;21.00;;
55134;SDS011;41031;44.750;11.308;2023-03-04T08:14:25;31.07;;;19.73;;
55134;SDS011;41031;44.750;11.308;2023-03-04T08:16:52;30.23;;;19.67;;
55134;SDS011;41031;44.750;11.308;2023-03-04T08:19:21;31.53;;;20.10;;
55134;SDS011;41031;44.750;11.308;2023-03-04T08:21:51;29.47;;;19.23;;
55134;SDS011;41031;44.750;11.308;2023-03-04T08:24:19;27.67;;;18.97;;
55134;SDS011;41031;44.750;11.308;2023-03-04T08:26:47;28.80;;;19.57;;
55134;SDS011;41031;44.750;11.308;2023-03-04T08:29:22;31.20;;;17.93;;
55134;SDS011;41031;44.750;11.308;2023-03-04T08:31:52;31.27;;;18.67;;
55134;SDS011;41031;44.750;11.308;2023-03-04T08:34:22;27.40;;;18.30;;
55134;SDS011;41031;44.750;11.308;2023-03-04T08:36:50;30.80;;;18.87;;
55134;SDS011;41031;44.750;11.308;2023-03-04T08:39:19;30.13;;;18.77;;
55134;SDS011;41031;44.750;11.308;2023-03-04T08:41:47;27.33;;;17.63;;
55134;SDS011;41031;44.750;11.308;2023-03-04T08:44:15;25.40;;;18.37;;
55134;SDS011;41031;44.750;11.308;2023-03-04T08:46:42;25.37;;;18.60;;
55134;SDS011;41031;44.750;11.308;2023-03-04T08:49:10;27.10;;;18.50;;
55134;SDS011;41031;44.750;11.308;2023-03-04T08:51:38;27.63;;;17.33;;
55134;SDS011;41031;44.750;11.308;2023-03-04T08:54:06;21.87;;;16.73;;
55134;SDS011;41031;44.750;11.308;2023-03-04T08:56:33;24.07;;;16.73;;
55134;SDS011;41031;44.750;11.308;2023-03-04T08:59:00;25.03;;;16.27;;
55134;SDS011;41031;44.750;11.308;2023-03-04T09:01:29;23.50;;;16.00;;
55134;SDS011;41031;44.750;11.308;2023-03-04T09:03:58;25.00;;;16.47;;
55134;SDS011;41031;44.750;11.308;2023-03-04T09:06:29;24.23;;;16.10;;
55134;SDS011;41031;44.750;11.308;2023-03-04T09:08:57;28.03;;;17.23;;
55134;SDS011;41031;44.750;11.308;2023-03-04T09:11:27;27.40;;;16.97;;
55134;SDS011;41031;44.750;11.308;2023-03-04T09:13:55;26.47;;;15.90;;
55134;SDS011;41031;44.750;11.308;2023-03-04T09:16:23;25.43;;;17.23;;
55134;SDS011;41031;44.750;11.308;2023-03-04T09:18:53;23.83;;;15.97;;
55134;SDS011;41031;44.750;11.308;2023-03-04T09:21:22;23.30;;;14.87;;
55134;SDS011;41031;44.750;11.308;2023-03-04T09:23:49;24.73;;;15.13;;
55134;SDS011;41031;44.750;11.308;2023-03-04T09:26:21;24.53;;;14.77;;
55134;SDS011;41031;44.750;11.308;2023-03-04T09:28:55;19.83;;;13.37;;
55134;SDS011;41031;44.750;11.308;2023-03-04T09:31:24;17.30;;;12.63;;
55134;SDS011;41031;44.750;11.308;2023-03-04T09:33:53;21.57;;;15.73;;
55134;SDS011;41031;44.750;11.308;2023-03-04T09:36:22;21.47;;;14.00;;
55134;SDS011;41031;44.750;11.308;2023-03-04T09:38:51;21.67;;;12.80;;
55134;SDS011;41031;44.750;11.308;2023-03-04T09:41:26;17.87;;;13.43;;
55134;SDS011;41031;44.750;11.308;2023-03-04T09:46:59;18.47;;;13.23;;
55134;SDS011;41031;44.750;11.308;2023-03-04T09:49:32;18.27;;;12.60;;
55134;SDS011;41031;44.750;11.308;2023-03-04T09:52:17;17.80;;;12.90;;
55134;SDS011;41031;44.750;11.308;2023-03-04T10:03:09;23.17;;;13.60;;
55134;SDS011;41031;44.750;11.308;2023-03-04T10:08:51;19.73;;;12.57;;
55134;SDS011;41031;44.750;11.308;2023-03-04T10:11:31;20.97;;;13.73;;
55134;SDS011;41031;44.750;11.308;2023-03-04T10:19:37;21.53;;;13.90;;
55134;SDS011;41031;44.750;11.308;2023-03-04T10:27:49;20.50;;;14.53;;
55134;SDS011;41031;44.750;11.308;2023-03-04T10:33:13;19.57;;;13.30;;
55134;SDS011;41031;44.750;11.308;2023-03-04T10:35:44;21.67;;;14.37;;
55134;SDS011;41031;44.750;11.308;2023-03-04T10:38:17;20.53;;;13.90;;
55134;SDS011;41031;44.750;11.308;2023-03-04T10:40:46;24.37;;;15.40;;
55134;SDS011;41031;44.750;11.308;2023-03-04T10:43:15;20.47;;;14.83;;
55134;SDS011;41031;44.750;11.308;2023-03-04T10:45:46;20.60;;;14.23;;
55134;SDS011;41031;44.750;11.308;2023-03-04T10:48:18;22.87;;;14.57;;
55134;SDS011;41031;44.750;11.308;2023-03-04T10:50:53;23.43;;;16.23;;
55134;SDS011;41031;44.750;11.308;2023-03-04T10:53:36;23.57;;;15.73;;
55134;SDS011;41031;44.750;11.308;2023-03-04T11:02:14;19.17;;;14.47;;
55134;SDS011;41031;44.750;11.308;2023-03-04T11:05:10;24.03;;;14.87;;
55134;SDS011;41031;44.750;11.308;2023-03-04T11:07:51;21.00;;;15.33;;
55134;SDS011;41031;44.750;11.308;2023-03-04T11:10:29;25.97;;;14.70;;
55134;SDS011;41031;44.750;11.308;2023-03-04T11:13:17;25.60;;;15.77;;
55134;SDS011;41031;44.750;11.308;2023-03-04T11:24:13;23.73;;;16.20;;
55134;SDS011;41031;44.750;11.308;2023-03-04T11:26:56;25.53;;;15.40;;
55134;SDS011;41031;44.750;11.308;2023-03-04T11:29:27;18.67;;;13.63;;
55134;SDS011;41031;44.750;11.308;2023-03-04T11:40:14;21.47;;;15.30;;
55134;SDS011;41031;44.750;11.308;2023-03-04T12:12:47;22.50;;;16.33;;
55134;SDS011;41031;44.750;11.308;2023-03-04T12:18:38;21.47;;;15.50;;
55134;SDS011;41031;44.750;11.308;2023-03-04T12:27:31;25.33;;;15.93;;
55134;SDS011;41031;44.750;11.308;2023-03-04T12:33:41;25.43;;;16.77;;
55134;SDS011;41031;44.750;11.308;2023-03-04T12:47:25;23.03;;;15.93;;
55134;SDS011;41031;44.750;11.308;2023-03-04T12:55:52;20.87;;;16.00;;
55134;SDS011;41031;44.750;11.308;2023-03-04T12:58:24;22.47;;;16.23;;
55134;SDS011;41031;44.750;11.308;2023-03-04T13:01:08;22.87;;;15.97;;
55134;SDS011;41031;44.750;11.308;2023-03-04T13:03:58;24.83;;;16.23;;
55134;SDS011;41031;44.750;11.308;2023-03-04T13:09:21;22.17;;;15.30;;
55134;SDS011;41031;44.750;11.308;2023-03-04T13:12:02;22.00;;;15.27;;
55134;SDS011;41031;44.750;11.308;2023-03-04T13:17:41;24.93;;;14.50;;
55134;SDS011;41031;44.750;11.308;2023-03-04T13:25:31;22.03;;;15.50;;
55134;SDS011;41031;44.750;11.308;2023-03-04T13:51:25;22.57;;;15.33;;
55134;SDS011;41031;44.750;11.308;2023-03-04T13:54:23;21.77;;;16.63;;
55134;SDS011;41031;44.750;11.308;2023-03-04T13:59:46;22.33;;;16.57;;
55134;SDS011;41031;44.750;11.308;2023-03-04T14:02:18;21.47;;;15.93;;
55134;SDS011;41031;44.750;11.308;2023-03-04T14:04:58;22.60;;;15.93;;
55134;SDS011;41031;44.750;11.308;2023-03-04T14:07:35;22.60;;;14.93;;
55134;SDS011;41031;44.750;11.308;2023-03-04T14:12:47;21.93;;;16.43;;
55134;SDS011;41031;44.750;11.308;2023-03-04T14:17:53;21.50;;;15.13;;
55134;SDS011;41031;44.750;11.308;2023-03-04T14:22:58;23.53;;;16.60;;
55134;SDS011;41031;44.750;11.308;2023-03-04T14:25:28;24.97;;;16.23;;
55134;SDS011;41031;44.750;11.308;2023-03-04T14:28:15;19.57;;;14.67;;
55134;SDS011;41031;44.750;11.308;2023-03-04T14:30:51;22.10;;;16.07;;
55134;SDS011;41031;44.750;11.308;2023-03-04T14:33:23;23.97;;;15.73;;
55134;SDS011;41031;44.750;11.308;2023-03-04T14:35:52;23.53;;;16.50;;
55134;SDS011;41031;44.750;11.308;2023-03-04T14:38:30;24.23;;;15.53;;
55134;SDS011;41031;44.750;11.308;2023-03-04T14:41:07;24.17;;;16.27;;
55134;SDS011;41031;44.750;11.308;2023-03-04T14:43:43;23.10;;;16.07;;
55134;SDS011;41031;44.750;11.308;2023-03-04T14:46:22;23.53;;;16.07;;
55134;SDS011;41031;44.750;11.308;2023-03-04T14:48:51;23.37;;;16.47;;
55134;SDS011;41031;44.750;11.308;2023-03-04T14:51:28;22.60;;;15.67;;
55134;SDS011;41031;44.750;11.308;2023-03-04T14:54:03;21.40;;;16.03;;
55134;SDS011;41031;44.750;11.308;2023-03-04T14:56:32;23.33;;;16.17;;
55134;SDS011;41031;44.750;11.308;2023-03-04T14:59:01;23.57;;;16.33;;
55134;SDS011;41031;44.750;11.308;2023-03-04T15:01:35;27.30;;;16.90;;
55134;SDS011;41031;44.750;11.308;2023-03-04T15:04:05;27.40;;;16.57;;
55134;SDS011;41031;44.750;11.308;2023-03-04T15:06:37;21.43;;;16.30;;
55134;SDS011;41031;44.750;11.308;2023-03-04T15:09:07;27.27;;;16.33;;
55134;SDS011;41031;44.750;11.308;2023-03-04T15:12:01;21.20;;;16.13;;
55134;SDS011;41031;44.750;11.308;2023-03-04T15:14:45;20.93;;;16.07;;
55134;SDS011;41031;44.750;11.308;2023-03-04T15:22:35;24.50;;;15.93;;
55134;SDS011;41031;44.750;11.308;2023-03-04T15:25:05;22.07;;;16.73;;
55134;SDS011;41031;44.750;11.308;2023-03-04T15:27:34;25.20;;;16.17;;
55134;SDS011;41031;44.750;11.308;2023-03-04T15:30:05;23.00;;;14.97;;
55134;SDS011;41031;44.750;11.308;2023-03-04T15:32:41;21.23;;;15.30;;
55134;SDS011;41031;44.750;11.308;2023-03-04T15:35:12;23.67;;;15.97;;
55134;SDS011;41031;44.750;11.308;2023-03-04T15:37:41;19.27;;;14.57;;
55134;SDS011;41031;44.750;11.308;2023-03-04T15:40:14;19.87;;;15.00;;
55134;SDS011;41031;44.750;11.308;2023-03-04T15:42:47;20.83;;;14.97;;
55134;SDS011;41031;44.750;11.308;2023-03-04T15:45:21;22.53;;;16.27;;
55134;SDS011;41031;44.750;11.308;2023-03-04T15:47:53;20.17;;;16.03;;
55134;SDS011;41031;44.750;11.308;2023-03-04T15:50:21;19.27;;;15.30;;
55134;SDS011;41031;44.750;11.308;2023-03-04T15:52:52;20.60;;;15.90;;
55134;SDS011;41031;44.750;11.308;2023-03-04T15:55:24;28.40;;;17.33;;
55134;SDS011;41031;44.750;11.308;2023-03-04T15:57:52;25.10;;;16.10;;
55134;SDS011;41031;44.750;11.308;2023-03-04T16:00:21;18.60;;;14.37;;
55134;SDS011;41031;44.750;11.308;2023-03-04T16:02:49;24.43;;;16.90;;
55134;SDS011;41031;44.750;11.308;2023-03-04T16:05:16;28.43;;;16.40;;
55134;SDS011;41031;44.750;11.308;2023-03-04T16:07:44;20.70;;;16.00;;
55134;SDS011;41031;44.750;11.308;2023-03-04T16:12:48;19.40;;;15.73;;
55134;SDS011;41031;44.750;11.308;2023-03-04T16:15:21;20.57;;;14.10;;
55134;SDS011;41031;44.750;11.308;2023-03-04T16:17:54;21.77;;;16.30;;
55134;SDS011;41031;44.750;11.308;2023-03-04T16:20:23;22.10;;;16.10;;
55134;SDS011;41031;44.750;11.308;2023-03-04T16:22:57;20.17;;;14.57;;
55134;SDS011;41031;44.750;11.308;2023-03-04T16:25:26;21.73;;;15.93;;
55134;SDS011;41031;44.750;11.308;2023-03-04T16:27:55;23.17;;;15.27;;
55134;SDS011;41031;44.750;11.308;2023-03-04T16:30:25;24.57;;;15.30;;
55134;SDS011;41031;44.750;11.308;2023-03-04T16:32:52;24.17;;;15.37;;
55134;SDS011;41031;44.750;11.308;2023-03-04T16:35:20;23.80;;;15.53;;
55134;SDS011;41031;44.750;11.308;2023-03-04T16:37:53;25.83;;;15.13;;
55134;SDS011;41031;44.750;11.308;2023-03-04T16:40:23;20.17;;;14.33;;
55134;SDS011;41031;44.750;11.308;2023-03-04T16:42:55;26.40;;;14.63;;
55134;SDS011;41031;44.750;11.308;2023-03-04T16:45:24;27.83;;;15.97;;
55134;SDS011;41031;44.750;11.308;2023-03-04T16:47:55;21.90;;;15.73;;
55134;SDS011;41031;44.750;11.308;2023-03-04T16:50:23;23.07;;;15.20;;
55134;SDS011;41031;44.750;11.308;2023-03-04T16:52:53;28.90;;;16.17;;
55134;SDS011;41031;44.750;11.308;2023-03-04T16:55:24;23.07;;;14.63;;
55134;SDS011;41031;44.750;11.308;2023-03-04T16:57:58;24.43;;;16.43;;
55134;SDS011;41031;44.750;11.308;2023-03-04T17:00:26;26.27;;;16.07;;
55134;SDS011;41031;44.750;11.308;2023-03-04T17:02:55;34.13;;;18.43;;
55134;SDS011;41031;44.750;11.308;2023-03-04T17:05:26;19.40;;;14.73;;
55134;SDS011;41031;44.750;11.308;2023-03-04T17:07:59;24.27;;;16.13;;
55134;SDS011;41031;44.750;11.308;2023-03-04T17:10:28;31.53;;;16.73;;
55134;SDS011;41031;44.750;11.308;2023-03-04T17:12:56;26.50;;;15.73;;
55134;SDS011;41031;44.750;11.308;2023-03-04T17:15:23;26.03;;;16.33;;